sensor_id;sensor_type;location;lat;lon;timestamp;temperature;humidity
27226;DHT22;14732;51.074;3.788;2023-10-13T00:00:22;19.10;99.90
27226;DHT22;14732;51.074;3.788;2023-10-13T00:02:57;19.30;99.90
27226;DHT22;14732;51.074;3.788;2023-10-13T00:05:29;19.30;99.90
27226;DHT22;14732;51.074;3.788;2023-10-13T00:08:02;19.30;99.90
27226;DHT22;14732;51.074;3.788;2023-10-13T00:10:29;19.20;99.90
27226;DHT22;14732;51.074;3.788;2023-10-13T00:12:56;19.20;99.90
27226;DHT22;14732;51.074;3.788;2023-10-13T00:15:32;19.20;99.90
27226;DHT22;14732;51.074;3.788;2023-10-13T00:18:05;19.30;99.90
27226;DHT22;14732;51.074;3.788;2023-10-13T00:20:43;19.20;99.90
27226;DHT22;14732;51.074;3.788;2023-10-13T00:23:15;19.10;99.90
27226;DHT22;14732;51.074;3.788;2023-10-13T00:25:49;19.10;99.90
27226;DHT22;14732;51.074;3.788;2023-10-13T00:28:18;19.30;99.90
27226;DHT22;14732;51.074;3.788;2023-10-13T00:30:52;19.20;99.90
27226;DHT22;14732;51.074;3.788;2023-10-13T00:33:18;19.30;99.90
27226;DHT22;14732;51.074;3.788;2023-10-13T00:35:49;19.30;99.90
27226;DHT22;14732;51.074;3.788;2023-10-13T00:38:17;19.30;99.90
27226;DHT22;14732;51.074;3.788;2023-10-13T00:40:44;19.30;99.90
27226;DHT22;14732;51.074;3.788;2023-10-13T00:43:21;19.30;99.90
27226;DHT22;14732;51.074;3.788;2023-10-13T00:45:58;19.30;99.90
27226;DHT22;14732;51.074;3.788;2023-10-13T00:48:32;19.30;99.90
27226;DHT22;14732;51.074;3.788;2023-10-13T00:51:06;19.20;99.90
27226;DHT22;14732;51.074;3.788;2023-10-13T00:53:36;19.20;99.90
27226;DHT22;14732;51.074;3.788;2023-10-13T00:56:05;19.10;99.90
27226;DHT22;14732;51.074;3.788;2023-10-13T00:58:36;19.10;99.90
27226;DHT22;14732;51.074;3.788;2023-10-13T01:01:05;19.20;99.90
27226;DHT22;14732;51.074;3.788;2023-10-13T01:03:55;19.10;99.90
27226;DHT22;14732;51.074;3.788;2023-10-13T01:06:22;19.20;99.90
27226;DHT22;14732;51.074;3.788;2023-10-13T01:09:06;19.20;99.90
27226;DHT22;14732;51.074;3.788;2023-10-13T01:11:40;19.20;99.90
27226;DHT22;14732;51.074;3.788;2023-10-13T01:14:09;19.20;99.90
27226;DHT22;14732;51.074;3.788;2023-10-13T01:16:37;19.30;99.90
27226;DHT22;14732;51.074;3.788;2023-10-13T01:19:15;19.30;99.90
27226;DHT22;14732;51.074;3.788;2023-10-13T01:21:45;19.30;99.90
27226;DHT22;14732;51.074;3.788;2023-10-13T01:24:13;19.30;99.90
27226;DHT22;14732;51.074;3.788;2023-10-13T01:26:39;19.20;99.90
27226;DHT22;14732;51.074;3.788;2023-10-13T01:29:06;19.20;99.90
27226;DHT22;14732;51.074;3.788;2023-10-13T01:31:44;19.20;99.90
27226;DHT22;14732;51.074;3.788;2023-10-13T01:34:17;19.20;99.90
27226;DHT22;14732;51.074;3.788;2023-10-13T01:36:48;19.20;99.90
27226;DHT22;14732;51.074;3.788;2023-10-13T01:39:16;19.30;99.90
27226;DHT22;14732;51.074;3.788;2023-10-13T01:41:43;19.30;99.90
27226;DHT22;14732;51.074;3.788;2023-10-13T01:44:09;19.30;99.90
27226;DHT22;14732;51.074;3.788;2023-10-13T01:46:41;19.50;99.90
27226;DHT22;14732;51.074;3.788;2023-10-13T01:49:08;19.40;99.90
27226;DHT22;14732;51.074;3.788;2023-10-13T01:51:34;19.30;99.90
27226;DHT22;14732;51.074;3.788;2023-10-13T01:53:59;19.30;99.90
27226;DHT22;14732;51.074;3.788;2023-10-13T01:56:28;19.20;99.90
27226;DHT22;14732;51.074;3.788;2023-10-13T01:58:56;19.30;99.90
27226;DHT22;14732;51.074;3.788;2023-10-13T02:01:21;19.30;99.90
27226;DHT22;14732;51.074;3.788;2023-10-13T02:03:54;19.20;99.90
27226;DHT22;14732;51.074;3.788;2023-10-13T02:06:32;19.30;99.90
27226;DHT22;14732;51.074;3.788;2023-10-13T02:09:04;19.40;99.90
27226;DHT22;14732;51.074;3.788;2023-10-13T02:11:39;19.30;99.90
27226;DHT22;14732;51.074;3.788;2023-10-13T02:14:05;19.30;99.90
27226;DHT22;14732;51.074;3.788;2023-10-13T02:16:31;19.20;99.90
27226;DHT22;14732;51.074;3.788;2023-10-13T02:18:57;18.90;99.90
27226;DHT22;14732;51.074;3.788;2023-10-13T02:21:30;19.00;99.90
27226;DHT22;14732;51.074;3.788;2023-10-13T02:23:57;19.00;99.90
27226;DHT22;14732;51.074;3.788;2023-10-13T02:26:31;18.90;99.90
27226;DHT22;14732;51.074;3.788;2023-10-13T02:29:01;18.80;99.90
27226;DHT22;14732;51.074;3.788;2023-10-13T02:31:37;18.80;99.90
27226;DHT22;14732;51.074;3.788;2023-10-13T02:34:04;18.80;99.90
27226;DHT22;14732;51.074;3.788;2023-10-13T02:36:38;18.70;99.90
27226;DHT22;14732;51.074;3.788;2023-10-13T02:39:12;18.80;99.90
27226;DHT22;14732;51.074;3.788;2023-10-13T02:41:39;18.90;99.90
27226;DHT22;14732;51.074;3.788;2023-10-13T02:44:07;19.10;99.90
27226;DHT22;14732;51.074;3.788;2023-10-13T02:46:34;19.20;99.90
27226;DHT22;14732;51.074;3.788;2023-10-13T02:49:05;19.30;99.90
27226;DHT22;14732;51.074;3.788;2023-10-13T02:51:37;19.40;99.90
27226;DHT22;14732;51.074;3.788;2023-10-13T02:54:07;19.30;99.90
27226;DHT22;14732;51.074;3.788;2023-10-13T02:56:37;19.40;99.90
27226;DHT22;14732;51.074;3.788;2023-10-13T02:59:03;19.50;99.90
27226;DHT22;14732;51.074;3.788;2023-10-13T03:01:33;19.50;99.90
27226;DHT22;14732;51.074;3.788;2023-10-13T03:04:02;19.60;99.90
27226;DHT22;14732;51.074;3.788;2023-10-13T03:06:29;19.60;99.90
27226;DHT22;14732;51.074;3.788;2023-10-13T03:08:59;19.50;99.90
27226;DHT22;14732;51.074;3.788;2023-10-13T03:11:41;19.60;99.90
27226;DHT22;14732;51.074;3.788;2023-10-13T03:14:23;19.60;99.90
27226;DHT22;14732;51.074;3.788;2023-10-13T03:16:55;19.70;99.90
27226;DHT22;14732;51.074;3.788;2023-10-13T03:19:21;19.60;99.90
27226;DHT22;14732;51.074;3.788;2023-10-13T03:21:47;19.60;99.90
27226;DHT22;14732;51.074;3.788;2023-10-13T03:24:23;19.60;99.90
27226;DHT22;14732;51.074;3.788;2023-10-13T03:27:04;19.60;99.90
27226;DHT22;14732;51.074;3.788;2023-10-13T03:29:37;19.60;99.90
27226;DHT22;14732;51.074;3.788;2023-10-13T03:32:11;19.60;99.90
27226;DHT22;14732;51.074;3.788;2023-10-13T03:34:38;19.70;99.90
27226;DHT22;14732;51.074;3.788;2023-10-13T03:37:11;19.70;99.90
27226;DHT22;14732;51.074;3.788;2023-10-13T03:39:43;19.40;99.90
27226;DHT22;14732;51.074;3.788;2023-10-13T03:42:11;19.40;99.90
27226;DHT22;14732;51.074;3.788;2023-10-13T03:44:47;19.30;99.90
27226;DHT22;14732;51.074;3.788;2023-10-13T03:47:13;19.50;99.90
27226;DHT22;14732;51.074;3.788;2023-10-13T03:49:53;19.60;99.90
27226;DHT22;14732;51.074;3.788;2023-10-13T03:52:38;19.70;99.90
27226;DHT22;14732;51.074;3.788;2023-10-13T03:55:04;19.80;99.90
27226;DHT22;14732;51.074;3.788;2023-10-13T03:57:31;19.80;99.90
27226;DHT22;14732;51.074;3.788;2023-10-13T04:00:03;19.70;99.90
27226;DHT22;14732;51.074;3.788;2023-10-13T04:02:35;19.60;99.90
27226;DHT22;14732;51.074;3.788;2023-10-13T04:05:02;19.80;99.90
27226;DHT22;14732;51.074;3.788;2023-10-13T04:07:35;19.90;99.90
27226;DHT22;14732;51.074;3.788;2023-10-13T04:10:26;19.90;99.90
27226;DHT22;14732;51.074;3.788;2023-10-13T04:13:20;19.90;99.90
27226;DHT22;14732;51.074;3.788;2023-10-13T04:16:07;19.80;99.90
27226;DHT22;14732;51.074;3.788;2023-10-13T04:18:51;19.80;99.90
27226;DHT22;14732;51.074;3.788;2023-10-13T04:21:20;19.80;99.90
27226;DHT22;14732;51.074;3.788;2023-10-13T04:24:11;19.70;99.90
27226;DHT22;14732;51.074;3.788;2023-10-13T04:26:43;19.60;99.90
27226;DHT22;14732;51.074;3.788;2023-10-13T04:29:29;19.60;99.90
27226;DHT22;14732;51.074;3.788;2023-10-13T04:32:15;19.70;99.90
27226;DHT22;14732;51.074;3.788;2023-10-13T04:35:00;19.80;99.90
27226;DHT22;14732;51.074;3.788;2023-10-13T04:37:38;19.70;99.90
27226;DHT22;14732;51.074;3.788;2023-10-13T04:40:41;19.80;99.90
27226;DHT22;14732;51.074;3.788;2023-10-13T04:43:24;19.70;99.90
27226;DHT22;14732;51.074;3.788;2023-10-13T04:46:02;19.70;99.90
27226;DHT22;14732;51.074;3.788;2023-10-13T04:48:48;19.60;99.90
27226;DHT22;14732;51.074;3.788;2023-10-13T04:51:13;19.60;99.90
27226;DHT22;14732;51.074;3.788;2023-10-13T04:53:57;19.70;99.90
27226;DHT22;14732;51.074;3.788;2023-10-13T04:56:29;19.70;99.90
27226;DHT22;14732;51.074;3.788;2023-10-13T04:59:20;19.70;99.90
27226;DHT22;14732;51.074;3.788;2023-10-13T05:02:24;19.70;99.90
27226;DHT22;14732;51.074;3.788;2023-10-13T05:05:02;19.60;99.90
27226;DHT22;14732;51.074;3.788;2023-10-13T05:07:34;19.60;99.90
27226;DHT22;14732;51.074;3.788;2023-10-13T05:10:18;19.60;99.90
27226;DHT22;14732;51.074;3.788;2023-10-13T05:13:03;19.50;99.90
27226;DHT22;14732;51.074;3.788;2023-10-13T05:15:48;19.40;99.90
27226;DHT22;14732;51.074;3.788;2023-10-13T05:18:32;19.50;99.90
27226;DHT22;14732;51.074;3.788;2023-10-13T05:21:17;19.40;99.90
27226;DHT22;14732;51.074;3.788;2023-10-13T05:24:02;19.30;99.90
27226;DHT22;14732;51.074;3.788;2023-10-13T05:26:46;19.10;99.90
27226;DHT22;14732;51.074;3.788;2023-10-13T05:29:30;19.20;99.90
27226;DHT22;14732;51.074;3.788;2023-10-13T05:32:14;19.10;99.90
27226;DHT22;14732;51.074;3.788;2023-10-13T05:34:58;18.90;99.90
27226;DHT22;14732;51.074;3.788;2023-10-13T05:37:42;19.00;99.90
27226;DHT22;14732;51.074;3.788;2023-10-13T05:40:26;19.00;99.90
27226;DHT22;14732;51.074;3.788;2023-10-13T05:43:10;19.20;99.90
27226;DHT22;14732;51.074;3.788;2023-10-13T05:46:00;19.20;99.90
27226;DHT22;14732;51.074;3.788;2023-10-13T05:48:45;19.30;99.90
27226;DHT22;14732;51.074;3.788;2023-10-13T05:51:26;19.10;99.90
27226;DHT22;14732;51.074;3.788;2023-10-13T05:54:02;19.20;99.90
27226;DHT22;14732;51.074;3.788;2023-10-13T05:59:32;19.30;99.90
27226;DHT22;14732;51.074;3.788;2023-10-13T06:02:18;19.30;99.90
27226;DHT22;14732;51.074;3.788;2023-10-13T06:05:05;19.40;99.90
27226;DHT22;14732;51.074;3.788;2023-10-13T06:07:50;19.50;99.90
27226;DHT22;14732;51.074;3.788;2023-10-13T06:10:34;19.40;99.90
27226;DHT22;14732;51.074;3.788;2023-10-13T06:13:19;19.30;99.90
27226;DHT22;14732;51.074;3.788;2023-10-13T06:16:21;19.40;99.90
27226;DHT22;14732;51.074;3.788;2023-10-13T06:19:05;19.20;99.90
27226;DHT22;14732;51.074;3.788;2023-10-13T06:21:49;19.40;99.90
27226;DHT22;14732;51.074;3.788;2023-10-13T06:24:33;19.30;99.90
27226;DHT22;14732;51.074;3.788;2023-10-13T06:27:17;19.40;99.90
27226;DHT22;14732;51.074;3.788;2023-10-13T06:30:03;19.60;99.90
27226;DHT22;14732;51.074;3.788;2023-10-13T06:32:30;19.40;99.90
27226;DHT22;14732;51.074;3.788;2023-10-13T06:34:57;19.60;99.90
27226;DHT22;14732;51.074;3.788;2023-10-13T06:37:27;19.70;99.90
27226;DHT22;14732;51.074;3.788;2023-10-13T06:39:57;19.70;99.90
27226;DHT22;14732;51.074;3.788;2023-10-13T06:42:34;19.70;99.90
27226;DHT22;14732;51.074;3.788;2023-10-13T06:45:00;19.70;99.90
27226;DHT22;14732;51.074;3.788;2023-10-13T06:47:37;19.80;99.90
27226;DHT22;14732;51.074;3.788;2023-10-13T06:50:17;19.80;99.90
27226;DHT22;14732;51.074;3.788;2023-10-13T06:52:48;19.70;99.90
27226;DHT22;14732;51.074;3.788;2023-10-13T06:55:14;19.80;99.90
27226;DHT22;14732;51.074;3.788;2023-10-13T06:57:43;19.90;99.90
27226;DHT22;14732;51.074;3.788;2023-10-13T07:00:10;19.90;99.90
27226;DHT22;14732;51.074;3.788;2023-10-13T07:02:46;20.00;99.90
27226;DHT22;14732;51.074;3.788;2023-10-13T07:05:12;20.00;99.90
27226;DHT22;14732;51.074;3.788;2023-10-13T07:07:40;19.90;99.90
27226;DHT22;14732;51.074;3.788;2023-10-13T07:10:12;20.00;99.90
27226;DHT22;14732;51.074;3.788;2023-10-13T07:12:39;20.10;99.90
27226;DHT22;14732;51.074;3.788;2023-10-13T07:15:15;20.20;99.90
27226;DHT22;14732;51.074;3.788;2023-10-13T07:17:44;20.10;99.90
27226;DHT22;14732;51.074;3.788;2023-10-13T07:20:10;20.20;99.90
27226;DHT22;14732;51.074;3.788;2023-10-13T07:23:03;20.40;99.90
27226;DHT22;14732;51.074;3.788;2023-10-13T07:25:29;20.40;99.90
27226;DHT22;14732;51.074;3.788;2023-10-13T07:27:59;20.30;99.90
27226;DHT22;14732;51.074;3.788;2023-10-13T07:30:26;20.30;99.90
27226;DHT22;14732;51.074;3.788;2023-10-13T07:32:52;20.40;99.90
27226;DHT22;14732;51.074;3.788;2023-10-13T07:35:20;20.50;99.90
27226;DHT22;14732;51.074;3.788;2023-10-13T07:37:50;20.50;99.90
27226;DHT22;14732;51.074;3.788;2023-10-13T07:40:18;20.60;99.90
27226;DHT22;14732;51.074;3.788;2023-10-13T07:42:56;20.80;99.90
27226;DHT22;14732;51.074;3.788;2023-10-13T07:45:37;20.60;99.90
27226;DHT22;14732;51.074;3.788;2023-10-13T07:48:07;20.70;99.90
27226;DHT22;14732;51.074;3.788;2023-10-13T07:50:45;20.90;99.90
27226;DHT22;14732;51.074;3.788;2023-10-13T07:53:11;20.90;99.90
27226;DHT22;14732;51.074;3.788;2023-10-13T07:55:49;20.90;99.90
27226;DHT22;14732;51.074;3.788;2023-10-13T07:58:22;21.00;99.90
27226;DHT22;14732;51.074;3.788;2023-10-13T08:00:54;20.90;99.90
27226;DHT22;14732;51.074;3.788;2023-10-13T08:03:42;21.00;99.90
27226;DHT22;14732;51.074;3.788;2023-10-13T08:06:16;21.10;99.90
27226;DHT22;14732;51.074;3.788;2023-10-13T08:08:42;21.30;99.90
27226;DHT22;14732;51.074;3.788;2023-10-13T08:11:13;21.40;99.90
27226;DHT22;14732;51.074;3.788;2023-10-13T08:13:52;21.40;99.90
27226;DHT22;14732;51.074;3.788;2023-10-13T08:16:24;21.40;99.90
27226;DHT22;14732;51.074;3.788;2023-10-13T08:18:55;21.50;99.90
27226;DHT22;14732;51.074;3.788;2023-10-13T08:21:21;21.60;99.90
27226;DHT22;14732;51.074;3.788;2023-10-13T08:23:51;21.60;99.90
27226;DHT22;14732;51.074;3.788;2023-10-13T08:26:24;21.60;99.90
27226;DHT22;14732;51.074;3.788;2023-10-13T08:28:59;21.60;99.90
27226;DHT22;14732;51.074;3.788;2023-10-13T08:31:43;21.60;99.90
27226;DHT22;14732;51.074;3.788;2023-10-13T08:34:15;21.60;99.90
27226;DHT22;14732;51.074;3.788;2023-10-13T08:36:48;21.60;99.90
27226;DHT22;14732;51.074;3.788;2023-10-13T08:39:14;21.60;99.90
27226;DHT22;14732;51.074;3.788;2023-10-13T08:42:09;21.60;99.90
27226;DHT22;14732;51.074;3.788;2023-10-13T08:44:43;21.70;99.90
27226;DHT22;14732;51.074;3.788;2023-10-13T08:47:14;21.80;99.90
27226;DHT22;14732;51.074;3.788;2023-10-13T08:49:44;21.80;99.90
27226;DHT22;14732;51.074;3.788;2023-10-13T08:52:17;21.90;99.90
27226;DHT22;14732;51.074;3.788;2023-10-13T08:55:04;21.90;99.90
27226;DHT22;14732;51.074;3.788;2023-10-13T08:57:59;21.80;99.90
27226;DHT22;14732;51.074;3.788;2023-10-13T09:00:39;21.80;99.90
27226;DHT22;14732;51.074;3.788;2023-10-13T09:03:38;22.00;99.90
27226;DHT22;14732;51.074;3.788;2023-10-13T09:06:05;22.10;99.90
27226;DHT22;14732;51.074;3.788;2023-10-13T09:08:34;22.10;99.90
27226;DHT22;14732;51.074;3.788;2023-10-13T09:11:22;22.20;99.90
27226;DHT22;14732;51.074;3.788;2023-10-13T09:13:52;22.00;99.90
27226;DHT22;14732;51.074;3.788;2023-10-13T09:16:17;22.00;99.90
27226;DHT22;14732;51.074;3.788;2023-10-13T09:19:02;21.90;99.90
27226;DHT22;14732;51.074;3.788;2023-10-13T09:21:38;21.90;99.90
27226;DHT22;14732;51.074;3.788;2023-10-13T09:24:03;21.80;99.90
27226;DHT22;14732;51.074;3.788;2023-10-13T09:26:53;21.70;99.90
27226;DHT22;14732;51.074;3.788;2023-10-13T09:29:21;21.80;99.90
27226;DHT22;14732;51.074;3.788;2023-10-13T09:31:47;21.80;99.90
27226;DHT22;14732;51.074;3.788;2023-10-13T09:34:19;21.60;99.90
27226;DHT22;14732;51.074;3.788;2023-10-13T09:36:47;21.60;99.90
27226;DHT22;14732;51.074;3.788;2023-10-13T09:39:14;21.60;99.90
27226;DHT22;14732;51.074;3.788;2023-10-13T09:41:56;21.60;99.90
27226;DHT22;14732;51.074;3.788;2023-10-13T09:44:21;21.60;99.90
27226;DHT22;14732;51.074;3.788;2023-10-13T09:46:47;21.50;99.90
27226;DHT22;14732;51.074;3.788;2023-10-13T09:49:18;21.60;99.90
27226;DHT22;14732;51.074;3.788;2023-10-13T09:52:11;21.60;99.90
27226;DHT22;14732;51.074;3.788;2023-10-13T09:54:51;21.50;99.90
27226;DHT22;14732;51.074;3.788;2023-10-13T09:57:28;21.60;99.90
27226;DHT22;14732;51.074;3.788;2023-10-13T10:00:09;21.60;99.90
27226;DHT22;14732;51.074;3.788;2023-10-13T10:02:55;21.60;99.90
27226;DHT22;14732;51.074;3.788;2023-10-13T10:05:25;21.60;99.90
27226;DHT22;14732;51.074;3.788;2023-10-13T10:07:57;21.60;99.90
27226;DHT22;14732;51.074;3.788;2023-10-13T10:10:32;21.50;99.90
27226;DHT22;14732;51.074;3.788;2023-10-13T10:13:39;21.60;99.90
27226;DHT22;14732;51.074;3.788;2023-10-13T10:16:11;21.70;99.90
27226;DHT22;14732;51.074;3.788;2023-10-13T10:18:41;21.70;99.90
27226;DHT22;14732;51.074;3.788;2023-10-13T10:21:07;21.60;99.90
27226;DHT22;14732;51.074;3.788;2023-10-13T10:23:33;21.60;99.90
27226;DHT22;14732;51.074;3.788;2023-10-13T10:26:15;21.70;99.90
27226;DHT22;14732;51.074;3.788;2023-10-13T10:28:46;21.70;99.90
27226;DHT22;14732;51.074;3.788;2023-10-13T10:31:12;21.70;99.90
27226;DHT22;14732;51.074;3.788;2023-10-13T10:33:39;21.60;99.90
27226;DHT22;14732;51.074;3.788;2023-10-13T10:36:05;21.70;99.90
27226;DHT22;14732;51.074;3.788;2023-10-13T10:38:31;21.80;99.90
27226;DHT22;14732;51.074;3.788;2023-10-13T10:41:07;21.90;99.90
27226;DHT22;14732;51.074;3.788;2023-10-13T10:43:37;21.90;99.90
27226;DHT22;14732;51.074;3.788;2023-10-13T10:46:25;21.80;99.90
27226;DHT22;14732;51.074;3.788;2023-10-13T10:48:52;22.00;99.90
27226;DHT22;14732;51.074;3.788;2023-10-13T10:51:26;22.10;99.90
27226;DHT22;14732;51.074;3.788;2023-10-13T10:53:57;22.30;99.90
27226;DHT22;14732;51.074;3.788;2023-10-13T10:56:25;22.50;99.90
27226;DHT22;14732;51.074;3.788;2023-10-13T10:58:58;22.50;99.90
27226;DHT22;14732;51.074;3.788;2023-10-13T11:01:27;22.70;99.90
27226;DHT22;14732;51.074;3.788;2023-10-13T11:04:12;22.60;99.90
27226;DHT22;14732;51.074;3.788;2023-10-13T11:06:56;22.80;99.90
27226;DHT22;14732;51.074;3.788;2023-10-13T11:09:28;23.00;99.90
27226;DHT22;14732;51.074;3.788;2023-10-13T11:12:14;23.10;99.90
27226;DHT22;14732;51.074;3.788;2023-10-13T11:14:42;23.10;99.90
27226;DHT22;14732;51.074;3.788;2023-10-13T11:17:08;23.10;99.90
27226;DHT22;14732;51.074;3.788;2023-10-13T11:19:44;23.00;99.90
27226;DHT22;14732;51.074;3.788;2023-10-13T11:22:14;23.10;99.90
27226;DHT22;14732;51.074;3.788;2023-10-13T11:24:59;23.20;99.90
27226;DHT22;14732;51.074;3.788;2023-10-13T11:27:30;23.20;99.90
27226;DHT22;14732;51.074;3.788;2023-10-13T11:30:11;23.30;99.90
27226;DHT22;14732;51.074;3.788;2023-10-13T11:32:43;23.50;99.90
27226;DHT22;14732;51.074;3.788;2023-10-13T11:35:09;23.50;99.90
27226;DHT22;14732;51.074;3.788;2023-10-13T11:37:55;23.50;99.90
27226;DHT22;14732;51.074;3.788;2023-10-13T11:40:40;23.30;99.90
27226;DHT22;14732;51.074;3.788;2023-10-13T11:43:23;23.50;99.90
27226;DHT22;14732;51.074;3.788;2023-10-13T11:45:50;23.60;99.90
27226;DHT22;14732;51.074;3.788;2023-10-13T11:48:39;23.70;99.90
27226;DHT22;14732;51.074;3.788;2023-10-13T11:51:09;23.70;99.90
27226;DHT22;14732;51.074;3.788;2023-10-13T11:53:50;23.70;99.90
27226;DHT22;14732;51.074;3.788;2023-10-13T11:56:21;23.50;99.90
27226;DHT22;14732;51.074;3.788;2023-10-13T11:58:47;23.40;99.90
27226;DHT22;14732;51.074;3.788;2023-10-13T12:01:14;23.30;99.90
27226;DHT22;14732;51.074;3.788;2023-10-13T12:03:43;23.40;99.90
27226;DHT22;14732;51.074;3.788;2023-10-13T12:06:28;23.40;99.90
27226;DHT22;14732;51.074;3.788;2023-10-13T12:09:05;23.50;99.90
27226;DHT22;14732;51.074;3.788;2023-10-13T12:11:47;23.50;99.90
27226;DHT22;14732;51.074;3.788;2023-10-13T12:14:15;23.50;99.90
27226;DHT22;14732;51.074;3.788;2023-10-13T12:16:47;23.70;99.90
27226;DHT22;14732;51.074;3.788;2023-10-13T12:19:17;23.70;99.90
27226;DHT22;14732;51.074;3.788;2023-10-13T12:21:43;23.70;99.90
27226;DHT22;14732;51.074;3.788;2023-10-13T12:24:10;23.90;99.90
27226;DHT22;14732;51.074;3.788;2023-10-13T12:26:55;24.10;99.90
27226;DHT22;14732;51.074;3.788;2023-10-13T12:29:23;24.20;99.90
27226;DHT22;14732;51.074;3.788;2023-10-13T12:31:53;24.30;99.90
27226;DHT22;14732;51.074;3.788;2023-10-13T12:34:36;24.30;99.90
27226;DHT22;14732;51.074;3.788;2023-10-13T12:37:32;24.50;99.90
27226;DHT22;14732;51.074;3.788;2023-10-13T12:40:16;24.60;99.90
27226;DHT22;14732;51.074;3.788;2023-10-13T12:43:00;24.60;99.90
27226;DHT22;14732;51.074;3.788;2023-10-13T12:45:46;24.60;99.90
27226;DHT22;14732;51.074;3.788;2023-10-13T12:48:31;24.30;99.90
27226;DHT22;14732;51.074;3.788;2023-10-13T12:51:16;24.40;99.90
27226;DHT22;14732;51.074;3.788;2023-10-13T12:53:57;24.40;99.90
27226;DHT22;14732;51.074;3.788;2023-10-13T12:56:52;24.30;99.90
27226;DHT22;14732;51.074;3.788;2023-10-13T12:59:22;24.40;99.90
27226;DHT22;14732;51.074;3.788;2023-10-13T13:01:52;24.40;99.90
27226;DHT22;14732;51.074;3.788;2023-10-13T13:04:18;24.10;99.90
27226;DHT22;14732;51.074;3.788;2023-10-13T13:06:47;24.00;99.90
27226;DHT22;14732;51.074;3.788;2023-10-13T13:09:16;24.10;99.90
27226;DHT22;14732;51.074;3.788;2023-10-13T13:11:53;24.00;99.90
27226;DHT22;14732;51.074;3.788;2023-10-13T13:14:25;24.00;99.90
27226;DHT22;14732;51.074;3.788;2023-10-13T13:16:55;23.90;99.90
27226;DHT22;14732;51.074;3.788;2023-10-13T13:19:32;23.90;99.90
27226;DHT22;14732;51.074;3.788;2023-10-13T13:22:05;23.90;99.90
27226;DHT22;14732;51.074;3.788;2023-10-13T13:24:40;23.80;99.90
27226;DHT22;14732;51.074;3.788;2023-10-13T13:27:12;23.80;99.90
27226;DHT22;14732;51.074;3.788;2023-10-13T13:29:44;23.80;99.90
27226;DHT22;14732;51.074;3.788;2023-10-13T13:32:09;23.70;99.90
27226;DHT22;14732;51.074;3.788;2023-10-13T13:34:47;23.80;99.90
27226;DHT22;14732;51.074;3.788;2023-10-13T13:37:22;23.60;99.90
27226;DHT22;14732;51.074;3.788;2023-10-13T13:39:48;23.70;99.90
27226;DHT22;14732;51.074;3.788;2023-10-13T13:42:13;23.90;99.90
27226;DHT22;14732;51.074;3.788;2023-10-13T13:44:45;23.90;99.90
27226;DHT22;14732;51.074;3.788;2023-10-13T13:47:15;23.90;99.90
27226;DHT22;14732;51.074;3.788;2023-10-13T13:49:42;23.90;99.90
27226;DHT22;14732;51.074;3.788;2023-10-13T13:52:18;23.70;99.90
27226;DHT22;14732;51.074;3.788;2023-10-13T13:54:47;23.60;99.90
27226;DHT22;14732;51.074;3.788;2023-10-13T13:57:13;23.70;99.90
27226;DHT22;14732;51.074;3.788;2023-10-13T13:59:39;23.60;99.90
27226;DHT22;14732;51.074;3.788;2023-10-13T14:02:06;23.60;99.90
27226;DHT22;14732;51.074;3.788;2023-10-13T14:04:48;23.70;99.90
27226;DHT22;14732;51.074;3.788;2023-10-13T14:07:19;23.60;99.90
27226;DHT22;14732;51.074;3.788;2023-10-13T14:09:46;23.50;99.90
27226;DHT22;14732;51.074;3.788;2023-10-13T14:12:17;23.60;99.90
27226;DHT22;14732;51.074;3.788;2023-10-13T14:15:02;23.60;99.90
27226;DHT22;14732;51.074;3.788;2023-10-13T14:17:27;23.50;99.90
27226;DHT22;14732;51.074;3.788;2023-10-13T14:20:01;23.50;99.90
27226;DHT22;14732;51.074;3.788;2023-10-13T14:22:34;23.40;99.90
27226;DHT22;14732;51.074;3.788;2023-10-13T14:25:02;23.40;99.90
27226;DHT22;14732;51.074;3.788;2023-10-13T14:27:35;23.30;99.90
27226;DHT22;14732;51.074;3.788;2023-10-13T14:30:01;23.40;99.90
27226;DHT22;14732;51.074;3.788;2023-10-13T14:32:28;23.40;99.90
27226;DHT22;14732;51.074;3.788;2023-10-13T14:34:54;23.30;99.90
27226;DHT22;14732;51.074;3.788;2023-10-13T14:37:23;23.20;99.90
27226;DHT22;14732;51.074;3.788;2023-10-13T14:39:56;23.20;99.90
27226;DHT22;14732;51.074;3.788;2023-10-13T14:42:26;23.10;99.90
27226;DHT22;14732;51.074;3.788;2023-10-13T14:44:52;23.20;99.90
27226;DHT22;14732;51.074;3.788;2023-10-13T14:47:24;23.20;99.90
27226;DHT22;14732;51.074;3.788;2023-10-13T14:49:54;23.20;99.90
27226;DHT22;14732;51.074;3.788;2023-10-13T14:52:27;23.30;99.90
27226;DHT22;14732;51.074;3.788;2023-10-13T14:54:59;23.30;99.90
27226;DHT22;14732;51.074;3.788;2023-10-13T14:57:25;23.20;99.90
27226;DHT22;14732;51.074;3.788;2023-10-13T14:59:55;23.40;99.90
27226;DHT22;14732;51.074;3.788;2023-10-13T15:02:22;23.20;99.90
27226;DHT22;14732;51.074;3.788;2023-10-13T15:04:48;23.20;99.90
27226;DHT22;14732;51.074;3.788;2023-10-13T15:07:16;23.20;99.90
27226;DHT22;14732;51.074;3.788;2023-10-13T15:09:46;23.10;99.90
27226;DHT22;14732;51.074;3.788;2023-10-13T15:12:12;23.30;99.90
27226;DHT22;14732;51.074;3.788;2023-10-13T15:14:38;23.40;99.90
27226;DHT22;14732;51.074;3.788;2023-10-13T15:17:05;23.30;99.90
27226;DHT22;14732;51.074;3.788;2023-10-13T15:19:32;23.30;99.90
27226;DHT22;14732;51.074;3.788;2023-10-13T15:22:04;23.20;99.90
27226;DHT22;14732;51.074;3.788;2023-10-13T15:24:33;23.10;99.90
27226;DHT22;14732;51.074;3.788;2023-10-13T15:27:08;23.20;99.90
27226;DHT22;14732;51.074;3.788;2023-10-13T15:29:34;23.20;99.90
27226;DHT22;14732;51.074;3.788;2023-10-13T15:32:04;23.30;99.90
27226;DHT22;14732;51.074;3.788;2023-10-13T15:34:31;23.20;99.90
27226;DHT22;14732;51.074;3.788;2023-10-13T15:36:58;23.40;99.90
27226;DHT22;14732;51.074;3.788;2023-10-13T15:39:25;23.40;99.90
27226;DHT22;14732;51.074;3.788;2023-10-13T15:41:57;23.40;99.90
27226;DHT22;14732;51.074;3.788;2023-10-13T15:44:28;23.40;99.90
27226;DHT22;14732;51.074;3.788;2023-10-13T15:46:58;23.40;99.90
27226;DHT22;14732;51.074;3.788;2023-10-13T15:49:24;23.30;99.90
27226;DHT22;14732;51.074;3.788;2023-10-13T15:51:53;23.20;99.90
27226;DHT22;14732;51.074;3.788;2023-10-13T15:54:21;23.20;99.90
27226;DHT22;14732;51.074;3.788;2023-10-13T15:56:49;23.20;99.90
27226;DHT22;14732;51.074;3.788;2023-10-13T15:59:20;23.20;99.90
27226;DHT22;14732;51.074;3.788;2023-10-13T16:01:48;23.10;99.90
27226;DHT22;14732;51.074;3.788;2023-10-13T16:04:14;23.00;99.90
27226;DHT22;14732;51.074;3.788;2023-10-13T16:06:41;22.80;99.90
27226;DHT22;14732;51.074;3.788;2023-10-13T16:09:07;22.70;99.90
27226;DHT22;14732;51.074;3.788;2023-10-13T16:11:49;22.60;99.90
27226;DHT22;14732;51.074;3.788;2023-10-13T16:14:15;22.40;99.90